sensor_id;sensor_type;location;lat;lon;timestamp;temperature;humidity
13462;DHT22;6803;45.264;5.468;2023-05-18T00:00:20;11.20;99.90
13462;DHT22;6803;45.264;5.468;2023-05-18T00:02:52;11.20;99.90
13462;DHT22;6803;45.264;5.468;2023-05-18T00:05:23;11.20;99.90
13462;DHT22;6803;45.264;5.468;2023-05-18T00:07:54;11.20;99.90
13462;DHT22;6803;45.264;5.468;2023-05-18T00:10:25;11.20;99.90
13462;DHT22;6803;45.264;5.468;2023-05-18T00:12:56;11.00;99.90
13462;DHT22;6803;45.264;5.468;2023-05-18T00:15:28;11.00;99.90
13462;DHT22;6803;45.264;5.468;2023-05-18T00:17:59;11.00;99.90
13462;DHT22;6803;45.264;5.468;2023-05-18T00:20:31;10.90;99.90
13462;DHT22;6803;45.264;5.468;2023-05-18T00:23:03;10.90;99.90
13462;DHT22;6803;45.264;5.468;2023-05-18T00:25:35;10.80;99.90
13462;DHT22;6803;45.264;5.468;2023-05-18T00:28:06;10.80;99.90
13462;DHT22;6803;45.264;5.468;2023-05-18T00:30:37;10.80;99.90
13462;DHT22;6803;45.264;5.468;2023-05-18T00:33:09;10.80;99.90
13462;DHT22;6803;45.264;5.468;2023-05-18T00:35:40;10.70;99.90
13462;DHT22;6803;45.264;5.468;2023-05-18T00:38:11;10.70;99.90
13462;DHT22;6803;45.264;5.468;2023-05-18T00:40:44;10.60;99.90
13462;DHT22;6803;45.264;5.468;2023-05-18T00:43:15;10.70;99.90
13462;DHT22;6803;45.264;5.468;2023-05-18T00:45:46;10.70;99.90
13462;DHT22;6803;45.264;5.468;2023-05-18T00:48:17;10.70;99.90
13462;DHT22;6803;45.264;5.468;2023-05-18T00:50:48;10.70;99.90
13462;DHT22;6803;45.264;5.468;2023-05-18T00:53:20;10.70;99.90
13462;DHT22;6803;45.264;5.468;2023-05-18T00:55:51;10.60;99.90
13462;DHT22;6803;45.264;5.468;2023-05-18T00:58:22;10.60;99.90
13462;DHT22;6803;45.264;5.468;2023-05-18T01:00:53;10.60;99.90
13462;DHT22;6803;45.264;5.468;2023-05-18T01:03:25;10.60;99.90
13462;DHT22;6803;45.264;5.468;2023-05-18T01:06:06;10.50;99.90
13462;DHT22;6803;45.264;5.468;2023-05-18T01:08:37;10.50;99.90
13462;DHT22;6803;45.264;5.468;2023-05-18T01:11:13;10.50;99.90
13462;DHT22;6803;45.264;5.468;2023-05-18T01:13:49;10.40;99.90
13462;DHT22;6803;45.264;5.468;2023-05-18T01:16:22;10.30;99.90
13462;DHT22;6803;45.264;5.468;2023-05-18T01:19:00;10.30;99.90
13462;DHT22;6803;45.264;5.468;2023-05-18T01:21:40;10.40;99.90
13462;DHT22;6803;45.264;5.468;2023-05-18T01:24:22;10.30;99.90
13462;DHT22;6803;45.264;5.468;2023-05-18T01:29:51;10.40;99.90
13462;DHT22;6803;45.264;5.468;2023-05-18T01:32:24;10.30;99.90
13462;DHT22;6803;45.264;5.468;2023-05-18T01:34:55;10.40;99.90
13462;DHT22;6803;45.264;5.468;2023-05-18T01:37:28;10.40;99.90
13462;DHT22;6803;45.264;5.468;2023-05-18T01:39:59;10.40;99.90
13462;DHT22;6803;45.264;5.468;2023-05-18T01:42:33;10.30;99.90
13462;DHT22;6803;45.264;5.468;2023-05-18T01:45:08;10.20;99.90
13462;DHT22;6803;45.264;5.468;2023-05-18T01:47:40;10.20;99.90
13462;DHT22;6803;45.264;5.468;2023-05-18T01:50:16;10.30;99.90
13462;DHT22;6803;45.264;5.468;2023-05-18T01:52:50;10.30;99.90
13462;DHT22;6803;45.264;5.468;2023-05-18T01:55:22;10.30;99.90
13462;DHT22;6803;45.264;5.468;2023-05-18T01:57:54;10.20;99.90
13462;DHT22;6803;45.264;5.468;2023-05-18T02:00:26;10.10;99.90
13462;DHT22;6803;45.264;5.468;2023-05-18T02:02:57;10.00;99.90
13462;DHT22;6803;45.264;5.468;2023-05-18T02:05:29;10.00;99.90
13462;DHT22;6803;45.264;5.468;2023-05-18T02:08:01;10.00;99.90
13462;DHT22;6803;45.264;5.468;2023-05-18T02:10:32;10.00;99.90
13462;DHT22;6803;45.264;5.468;2023-05-18T02:13:03;9.90;99.90
13462;DHT22;6803;45.264;5.468;2023-05-18T02:15:34;9.90;99.90
13462;DHT22;6803;45.264;5.468;2023-05-18T02:18:05;9.80;99.90
13462;DHT22;6803;45.264;5.468;2023-05-18T02:20:37;9.70;99.90
13462;DHT22;6803;45.264;5.468;2023-05-18T02:23:10;9.70;99.90
13462;DHT22;6803;45.264;5.468;2023-05-18T02:25:41;9.70;99.90
13462;DHT22;6803;45.264;5.468;2023-05-18T02:28:13;9.60;99.90
13462;DHT22;6803;45.264;5.468;2023-05-18T02:30:44;9.60;99.90
13462;DHT22;6803;45.264;5.468;2023-05-18T02:33:17;9.60;99.90
13462;DHT22;6803;45.264;5.468;2023-05-18T02:35:48;9.60;99.90
13462;DHT22;6803;45.264;5.468;2023-05-18T02:38:19;9.50;99.90
13462;DHT22;6803;45.264;5.468;2023-05-18T02:40:50;9.50;99.90
13462;DHT22;6803;45.264;5.468;2023-05-18T02:43:21;9.40;99.90
13462;DHT22;6803;45.264;5.468;2023-05-18T02:45:52;9.30;99.90
13462;DHT22;6803;45.264;5.468;2023-05-18T02:48:23;9.20;99.90
13462;DHT22;6803;45.264;5.468;2023-05-18T02:50:54;9.30;99.90
13462;DHT22;6803;45.264;5.468;2023-05-18T02:53:27;9.30;99.90
13462;DHT22;6803;45.264;5.468;2023-05-18T02:55:58;9.30;99.90
13462;DHT22;6803;45.264;5.468;2023-05-18T02:58:31;9.20;99.90
13462;DHT22;6803;45.264;5.468;2023-05-18T03:01:02;9.20;99.90
13462;DHT22;6803;45.264;5.468;2023-05-18T03:03:35;9.20;99.90
13462;DHT22;6803;45.264;5.468;2023-05-18T03:06:07;9.30;99.90
13462;DHT22;6803;45.264;5.468;2023-05-18T03:08:38;9.30;99.90
13462;DHT22;6803;45.264;5.468;2023-05-18T03:11:11;9.30;99.90
13462;DHT22;6803;45.264;5.468;2023-05-18T03:13:42;9.30;99.90
13462;DHT22;6803;45.264;5.468;2023-05-18T03:16:13;9.30;99.90
13462;DHT22;6803;45.264;5.468;2023-05-18T03:18:44;9.30;99.90
13462;DHT22;6803;45.264;5.468;2023-05-18T03:21:15;9.30;99.90
13462;DHT22;6803;45.264;5.468;2023-05-18T03:23:46;9.20;99.90
13462;DHT22;6803;45.264;5.468;2023-05-18T03:26:17;9.20;99.90
13462;DHT22;6803;45.264;5.468;2023-05-18T03:28:49;9.30;99.90
13462;DHT22;6803;45.264;5.468;2023-05-18T03:31:20;9.30;99.90
13462;DHT22;6803;45.264;5.468;2023-05-18T03:33:52;9.30;99.90
13462;DHT22;6803;45.264;5.468;2023-05-18T03:36:23;9.20;99.90
13462;DHT22;6803;45.264;5.468;2023-05-18T03:38:56;9.20;99.90
13462;DHT22;6803;45.264;5.468;2023-05-18T03:41:27;9.10;99.90
13462;DHT22;6803;45.264;5.468;2023-05-18T03:43:58;9.20;99.90
13462;DHT22;6803;45.264;5.468;2023-05-18T03:46:30;9.20;99.90
13462;DHT22;6803;45.264;5.468;2023-05-18T03:49:01;9.20;99.90
13462;DHT22;6803;45.264;5.468;2023-05-18T03:51:33;9.30;99.90
13462;DHT22;6803;45.264;5.468;2023-05-18T03:54:05;9.30;99.90
13462;DHT22;6803;45.264;5.468;2023-05-18T03:56:36;9.30;99.90
13462;DHT22;6803;45.264;5.468;2023-05-18T03:59:07;9.30;99.90
13462;DHT22;6803;45.264;5.468;2023-05-18T04:01:38;9.10;99.90
13462;DHT22;6803;45.264;5.468;2023-05-18T04:04:11;9.10;99.90
13462;DHT22;6803;45.264;5.468;2023-05-18T04:06:44;9.20;99.90
13462;DHT22;6803;45.264;5.468;2023-05-18T04:09:17;9.20;99.90
13462;DHT22;6803;45.264;5.468;2023-05-18T04:11:50;9.10;99.90
13462;DHT22;6803;45.264;5.468;2023-05-18T04:14:21;9.10;99.90
13462;DHT22;6803;45.264;5.468;2023-05-18T04:16:53;9.20;99.90
13462;DHT22;6803;45.264;5.468;2023-05-18T04:19:25;9.20;99.90
13462;DHT22;6803;45.264;5.468;2023-05-18T04:21:56;9.10;99.90
13462;DHT22;6803;45.264;5.468;2023-05-18T04:24:27;9.20;99.90
13462;DHT22;6803;45.264;5.468;2023-05-18T04:26:58;9.20;99.90
13462;DHT22;6803;45.264;5.468;2023-05-18T04:29:30;9.20;99.90
13462;DHT22;6803;45.264;5.468;2023-05-18T04:32:01;9.10;99.90
13462;DHT22;6803;45.264;5.468;2023-05-18T04:34:32;9.00;99.90
13462;DHT22;6803;45.264;5.468;2023-05-18T04:37:04;8.90;99.90
13462;DHT22;6803;45.264;5.468;2023-05-18T04:39:36;9.00;99.90
13462;DHT22;6803;45.264;5.468;2023-05-18T04:42:10;9.00;99.90
13462;DHT22;6803;45.264;5.468;2023-05-18T04:44:42;8.90;99.90
13462;DHT22;6803;45.264;5.468;2023-05-18T04:47:13;8.90;99.90
13462;DHT22;6803;45.264;5.468;2023-05-18T04:49:44;8.90;99.90
13462;DHT22;6803;45.264;5.468;2023-05-18T04:52:15;8.90;99.90
13462;DHT22;6803;45.264;5.468;2023-05-18T04:54:46;9.00;99.90
13462;DHT22;6803;45.264;5.468;2023-05-18T04:57:17;9.00;99.90
13462;DHT22;6803;45.264;5.468;2023-05-18T04:59:49;9.10;99.90
13462;DHT22;6803;45.264;5.468;2023-05-18T05:02:21;9.10;99.90
13462;DHT22;6803;45.264;5.468;2023-05-18T05:04:52;9.10;99.90
13462;DHT22;6803;45.264;5.468;2023-05-18T05:07:23;9.20;99.90
13462;DHT22;6803;45.264;5.468;2023-05-18T05:09:54;9.30;99.90
13462;DHT22;6803;45.264;5.468;2023-05-18T05:12:26;9.40;99.90
13462;DHT22;6803;45.264;5.468;2023-05-18T05:14:57;9.40;99.90
13462;DHT22;6803;45.264;5.468;2023-05-18T05:17:27;9.30;99.90
13462;DHT22;6803;45.264;5.468;2023-05-18T05:20:02;9.30;99.90
13462;DHT22;6803;45.264;5.468;2023-05-18T05:22:34;9.40;99.90
13462;DHT22;6803;45.264;5.468;2023-05-18T05:25:07;9.20;99.90
13462;DHT22;6803;45.264;5.468;2023-05-18T05:27:38;9.30;99.90
13462;DHT22;6803;45.264;5.468;2023-05-18T05:30:10;9.30;99.90
13462;DHT22;6803;45.264;5.468;2023-05-18T05:32:42;9.40;99.90
13462;DHT22;6803;45.264;5.468;2023-05-18T05:35:13;9.50;99.90
13462;DHT22;6803;45.264;5.468;2023-05-18T05:37:44;9.40;99.90
13462;DHT22;6803;45.264;5.468;2023-05-18T05:40:15;9.40;99.90
13462;DHT22;6803;45.264;5.468;2023-05-18T05:42:46;9.40;99.90
13462;DHT22;6803;45.264;5.468;2023-05-18T05:45:18;9.50;99.90
13462;DHT22;6803;45.264;5.468;2023-05-18T05:47:50;9.60;99.90
13462;DHT22;6803;45.264;5.468;2023-05-18T05:50:21;9.60;99.90
13462;DHT22;6803;45.264;5.468;2023-05-18T05:52:52;9.60;99.90
13462;DHT22;6803;45.264;5.468;2023-05-18T05:58:02;9.70;99.90
13462;DHT22;6803;45.264;5.468;2023-05-18T06:00:34;9.70;99.90
13462;DHT22;6803;45.264;5.468;2023-05-18T06:03:05;9.60;99.90
13462;DHT22;6803;45.264;5.468;2023-05-18T06:05:37;9.60;99.90
13462;DHT22;6803;45.264;5.468;2023-05-18T06:08:09;9.60;99.90
13462;DHT22;6803;45.264;5.468;2023-05-18T06:10:40;9.60;99.90
13462;DHT22;6803;45.264;5.468;2023-05-18T06:13:11;9.70;99.90
13462;DHT22;6803;45.264;5.468;2023-05-18T06:15:42;9.70;99.90
13462;DHT22;6803;45.264;5.468;2023-05-18T06:18:13;9.90;99.90
13462;DHT22;6803;45.264;5.468;2023-05-18T06:20:45;9.90;99.90
13462;DHT22;6803;45.264;5.468;2023-05-18T06:23:16;9.90;99.90
13462;DHT22;6803;45.264;5.468;2023-05-18T06:25:50;9.90;99.90
13462;DHT22;6803;45.264;5.468;2023-05-18T06:28:22;9.90;99.90
13462;DHT22;6803;45.264;5.468;2023-05-18T06:30:53;10.00;99.90
13462;DHT22;6803;45.264;5.468;2023-05-18T06:33:24;10.00;99.90
13462;DHT22;6803;45.264;5.468;2023-05-18T06:35:57;10.10;99.90
13462;DHT22;6803;45.264;5.468;2023-05-18T06:38:28;10.10;99.90
13462;DHT22;6803;45.264;5.468;2023-05-18T06:40:59;10.20;99.90
13462;DHT22;6803;45.264;5.468;2023-05-18T06:43:31;10.20;99.90
13462;DHT22;6803;45.264;5.468;2023-05-18T06:46:02;10.20;99.90
13462;DHT22;6803;45.264;5.468;2023-05-18T06:48:33;10.20;99.90
13462;DHT22;6803;45.264;5.468;2023-05-18T06:51:04;10.20;99.90
13462;DHT22;6803;45.264;5.468;2023-05-18T06:53:36;10.20;99.90
13462;DHT22;6803;45.264;5.468;2023-05-18T06:56:07;10.20;99.90
13462;DHT22;6803;45.264;5.468;2023-05-18T06:58:40;10.20;99.90
13462;DHT22;6803;45.264;5.468;2023-05-18T07:01:11;10.30;99.90
13462;DHT22;6803;45.264;5.468;2023-05-18T07:03:43;10.40;99.90
13462;DHT22;6803;45.264;5.468;2023-05-18T07:06:14;10.40;99.90
13462;DHT22;6803;45.264;5.468;2023-05-18T07:08:46;10.40;99.90
13462;DHT22;6803;45.264;5.468;2023-05-18T07:11:17;10.30;99.90
13462;DHT22;6803;45.264;5.468;2023-05-18T07:13:48;10.50;99.90
13462;DHT22;6803;45.264;5.468;2023-05-18T07:16:19;10.50;99.90
13462;DHT22;6803;45.264;5.468;2023-05-18T07:18:51;10.60;99.90
13462;DHT22;6803;45.264;5.468;2023-05-18T07:21:22;10.70;99.90
13462;DHT22;6803;45.264;5.468;2023-05-18T07:23:54;10.70;99.90
13462;DHT22;6803;45.264;5.468;2023-05-18T07:26:26;10.70;99.90
13462;DHT22;6803;45.264;5.468;2023-05-18T07:28:58;10.70;99.90
13462;DHT22;6803;45.264;5.468;2023-05-18T07:31:29;10.50;99.90
13462;DHT22;6803;45.264;5.468;2023-05-18T07:34:02;10.40;99.90
13462;DHT22;6803;45.264;5.468;2023-05-18T07:36:33;10.60;99.90
13462;DHT22;6803;45.264;5.468;2023-05-18T07:39:04;10.60;99.90
13462;DHT22;6803;45.264;5.468;2023-05-18T07:41:35;10.60;99.90
13462;DHT22;6803;45.264;5.468;2023-05-18T07:44:06;10.70;99.90
13462;DHT22;6803;45.264;5.468;2023-05-18T07:46:37;10.60;99.90
13462;DHT22;6803;45.264;5.468;2023-05-18T07:49:09;10.70;99.90
13462;DHT22;6803;45.264;5.468;2023-05-18T07:51:40;10.70;99.90
13462;DHT22;6803;45.264;5.468;2023-05-18T07:54:12;10.90;99.90
13462;DHT22;6803;45.264;5.468;2023-05-18T07:56:43;10.80;99.90
13462;DHT22;6803;45.264;5.468;2023-05-18T07:59:15;10.70;99.90
13462;DHT22;6803;45.264;5.468;2023-05-18T08:01:46;10.80;99.90
13462;DHT22;6803;45.264;5.468;2023-05-18T08:04:17;10.90;99.90
13462;DHT22;6803;45.264;5.468;2023-05-18T08:06:49;11.00;99.90
13462;DHT22;6803;45.264;5.468;2023-05-18T08:09:21;11.00;99.90
13462;DHT22;6803;45.264;5.468;2023-05-18T08:11:52;11.00;99.90
13462;DHT22;6803;45.264;5.468;2023-05-18T08:14:24;11.00;99.90
13462;DHT22;6803;45.264;5.468;2023-05-18T08:16:55;11.00;99.90
13462;DHT22;6803;45.264;5.468;2023-05-18T08:19:26;11.10;99.90
13462;DHT22;6803;45.264;5.468;2023-05-18T08:21:58;11.10;99.90
13462;DHT22;6803;45.264;5.468;2023-05-18T08:24:29;11.30;99.90
13462;DHT22;6803;45.264;5.468;2023-05-18T08:27:00;11.30;99.90
13462;DHT22;6803;45.264;5.468;2023-05-18T08:29:32;11.30;99.90
13462;DHT22;6803;45.264;5.468;2023-05-18T08:32:04;11.30;99.90
13462;DHT22;6803;45.264;5.468;2023-05-18T08:34:36;11.10;99.90
13462;DHT22;6803;45.264;5.468;2023-05-18T08:37:07;11.00;99.90
13462;DHT22;6803;45.264;5.468;2023-05-18T08:39:38;11.00;99.90
13462;DHT22;6803;45.264;5.468;2023-05-18T08:45:00;11.10;99.90
13462;DHT22;6803;45.264;5.468;2023-05-18T08:47:24;11.20;99.90
13462;DHT22;6803;45.264;5.468;2023-05-18T08:49:56;11.30;99.90
13462;DHT22;6803;45.264;5.468;2023-05-18T08:52:32;11.30;99.90
13462;DHT22;6803;45.264;5.468;2023-05-18T08:55:06;11.30;99.90
13462;DHT22;6803;45.264;5.468;2023-05-18T08:57:39;11.40;99.90
13462;DHT22;6803;45.264;5.468;2023-05-18T09:00:14;11.20;99.90
13462;DHT22;6803;45.264;5.468;2023-05-18T09:02:47;11.30;99.90
13462;DHT22;6803;45.264;5.468;2023-05-18T09:05:20;11.30;99.90
13462;DHT22;6803;45.264;5.468;2023-05-18T09:07:54;11.30;99.90
13462;DHT22;6803;45.264;5.468;2023-05-18T09:10:26;11.30;99.90
13462;DHT22;6803;45.264;5.468;2023-05-18T09:12:58;11.40;99.90
13462;DHT22;6803;45.264;5.468;2023-05-18T09:15:31;11.50;99.90
13462;DHT22;6803;45.264;5.468;2023-05-18T09:18:04;11.50;99.90
13462;DHT22;6803;45.264;5.468;2023-05-18T09:20:35;11.60;99.90
13462;DHT22;6803;45.264;5.468;2023-05-18T09:23:06;11.70;99.90
13462;DHT22;6803;45.264;5.468;2023-05-18T09:25:42;11.70;99.90
13462;DHT22;6803;45.264;5.468;2023-05-18T09:28:13;11.70;99.90
13462;DHT22;6803;45.264;5.468;2023-05-18T09:30:44;11.60;99.90
13462;DHT22;6803;45.264;5.468;2023-05-18T09:33:20;11.60;99.90
13462;DHT22;6803;45.264;5.468;2023-05-18T09:35:52;11.50;99.90
13462;DHT22;6803;45.264;5.468;2023-05-18T09:38:23;11.60;99.90
13462;DHT22;6803;45.264;5.468;2023-05-18T09:40:56;11.70;99.90
13462;DHT22;6803;45.264;5.468;2023-05-18T09:43:29;11.60;99.90
13462;DHT22;6803;45.264;5.468;2023-05-18T09:46:04;11.70;99.90
13462;DHT22;6803;45.264;5.468;2023-05-18T09:48:36;11.80;99.90
13462;DHT22;6803;45.264;5.468;2023-05-18T09:51:10;11.80;99.90
13462;DHT22;6803;45.264;5.468;2023-05-18T09:53:47;11.80;99.90
13462;DHT22;6803;45.264;5.468;2023-05-18T09:56:18;11.90;99.90
13462;DHT22;6803;45.264;5.468;2023-05-18T09:58:49;11.70;99.90
13462;DHT22;6803;45.264;5.468;2023-05-18T10:01:21;11.80;99.90
13462;DHT22;6803;45.264;5.468;2023-05-18T10:03:53;11.90;99.90
13462;DHT22;6803;45.264;5.468;2023-05-18T10:06:27;11.90;99.90
13462;DHT22;6803;45.264;5.468;2023-05-18T10:09:01;11.70;99.90
13462;DHT22;6803;45.264;5.468;2023-05-18T10:11:35;11.80;99.90
13462;DHT22;6803;45.264;5.468;2023-05-18T10:14:07;12.00;99.90
13462;DHT22;6803;45.264;5.468;2023-05-18T10:16:58;12.10;99.90
13462;DHT22;6803;45.264;5.468;2023-05-18T10:19:33;12.20;99.90
13462;DHT22;6803;45.264;5.468;2023-05-18T10:22:05;12.30;99.90
13462;DHT22;6803;45.264;5.468;2023-05-18T10:24:38;12.40;99.90
13462;DHT22;6803;45.264;5.468;2023-05-18T10:27:10;12.60;99.90
13462;DHT22;6803;45.264;5.468;2023-05-18T10:29:43;12.70;99.90
13462;DHT22;6803;45.264;5.468;2023-05-18T10:32:17;12.70;99.90
13462;DHT22;6803;45.264;5.468;2023-05-18T10:34:50;12.80;99.90
13462;DHT22;6803;45.264;5.468;2023-05-18T10:37:23;12.80;99.90
13462;DHT22;6803;45.264;5.468;2023-05-18T10:39:59;13.00;99.90
13462;DHT22;6803;45.264;5.468;2023-05-18T10:42:31;13.40;99.90
13462;DHT22;6803;45.264;5.468;2023-05-18T10:45:04;13.80;99.90
13462;DHT22;6803;45.264;5.468;2023-05-18T10:50:20;14.20;99.90
13462;DHT22;6803;45.264;5.468;2023-05-18T10:52:52;14.30;99.90
13462;DHT22;6803;45.264;5.468;2023-05-18T10:55:23;14.30;99.90
13462;DHT22;6803;45.264;5.468;2023-05-18T10:57:59;14.00;99.90
13462;DHT22;6803;45.264;5.468;2023-05-18T11:00:31;14.40;99.90
13462;DHT22;6803;45.264;5.468;2023-05-18T11:03:07;14.50;99.90
13462;DHT22;6803;45.264;5.468;2023-05-18T11:05:48;14.60;99.90
13462;DHT22;6803;45.264;5.468;2023-05-18T11:08:29;14.40;99.90
13462;DHT22;6803;45.264;5.468;2023-05-18T11:11:02;14.70;99.90
13462;DHT22;6803;45.264;5.468;2023-05-18T11:13:42;14.50;99.90
13462;DHT22;6803;45.264;5.468;2023-05-18T11:16:11;14.60;99.90
13462;DHT22;6803;45.264;5.468;2023-05-18T11:18:44;14.20;99.90
13462;DHT22;6803;45.264;5.468;2023-05-18T11:24:33;13.60;99.90
13462;DHT22;6803;45.264;5.468;2023-05-18T11:27:13;13.80;99.90
13462;DHT22;6803;45.264;5.468;2023-05-18T11:29:45;13.50;99.90
13462;DHT22;6803;45.264;5.468;2023-05-18T11:32:23;14.00;99.90
13462;DHT22;6803;45.264;5.468;2023-05-18T11:34:59;14.10;99.90
13462;DHT22;6803;45.264;5.468;2023-05-18T11:37:48;14.40;99.90
13462;DHT22;6803;45.264;5.468;2023-05-18T11:43:25;15.00;99.90
13462;DHT22;6803;45.264;5.468;2023-05-18T11:45:58;15.20;99.90
13462;DHT22;6803;45.264;5.468;2023-05-18T11:48:29;15.50;99.90
13462;DHT22;6803;45.264;5.468;2023-05-18T11:51:01;15.40;99.90
13462;DHT22;6803;45.264;5.468;2023-05-18T11:53:34;15.80;99.90
13462;DHT22;6803;45.264;5.468;2023-05-18T11:58:58;15.80;99.90
13462;DHT22;6803;45.264;5.468;2023-05-18T12:01:31;16.00;99.90
13462;DHT22;6803;45.264;5.468;2023-05-18T12:04:03;16.00;99.90
13462;DHT22;6803;45.264;5.468;2023-05-18T12:06:35;15.80;99.90
13462;DHT22;6803;45.264;5.468;2023-05-18T12:09:08;15.30;99.90
13462;DHT22;6803;45.264;5.468;2023-05-18T12:11:40;15.50;99.90
13462;DHT22;6803;45.264;5.468;2023-05-18T12:14:12;15.50;99.90
13462;DHT22;6803;45.264;5.468;2023-05-18T12:16:43;15.50;99.90
13462;DHT22;6803;45.264;5.468;2023-05-18T12:19:15;15.50;99.90
13462;DHT22;6803;45.264;5.468;2023-05-18T12:21:48;15.30;99.90
13462;DHT22;6803;45.264;5.468;2023-05-18T12:24:19;15.10;99.90
13462;DHT22;6803;45.264;5.468;2023-05-18T12:26:50;15.00;99.90
13462;DHT22;6803;45.264;5.468;2023-05-18T12:29:21;14.80;99.90
13462;DHT22;6803;45.264;5.468;2023-05-18T12:31:53;15.00;99.90
13462;DHT22;6803;45.264;5.468;2023-05-18T12:34:27;14.90;99.90
13462;DHT22;6803;45.264;5.468;2023-05-18T12:37:00;14.90;99.90
13462;DHT22;6803;45.264;5.468;2023-05-18T12:39:31;14.80;99.90
13462;DHT22;6803;45.264;5.468;2023-05-18T12:42:13;15.00;99.90
13462;DHT22;6803;45.264;5.468;2023-05-18T12:44:45;15.00;99.90
13462;DHT22;6803;45.264;5.468;2023-05-18T12:47:17;15.00;99.90
13462;DHT22;6803;45.264;5.468;2023-05-18T12:49:49;14.90;99.90
13462;DHT22;6803;45.264;5.468;2023-05-18T12:52:21;15.10;99.90
13462;DHT22;6803;45.264;5.468;2023-05-18T12:54:53;15.10;99.90
13462;DHT22;6803;45.264;5.468;2023-05-18T12:57:26;14.90;99.90
13462;DHT22;6803;45.264;5.468;2023-05-18T13:00:00;14.90;99.90
13462;DHT22;6803;45.264;5.468;2023-05-18T13:02:35;15.00;99.90
13462;DHT22;6803;45.264;5.468;2023-05-18T13:05:09;14.90;99.90
13462;DHT22;6803;45.264;5.468;2023-05-18T13:07:42;15.10;99.90
13462;DHT22;6803;45.264;5.468;2023-05-18T13:10:15;15.10;99.90
13462;DHT22;6803;45.264;5.468;2023-05-18T13:12:48;15.00;99.90
13462;DHT22;6803;45.264;5.468;2023-05-18T13:15:20;15.10;99.90
13462;DHT22;6803;45.264;5.468;2023-05-18T13:17:57;15.00;99.90
13462;DHT22;6803;45.264;5.468;2023-05-18T13:20:37;15.20;99.90
13462;DHT22;6803;45.264;5.468;2023-05-18T13:23:08;15.20;99.90
13462;DHT22;6803;45.264;5.468;2023-05-18T13:25:40;15.40;99.90
13462;DHT22;6803;45.264;5.468;2023-05-18T13:28:13;15.30;99.90
13462;DHT22;6803;45.264;5.468;2023-05-18T13:30:46;15.40;99.90
13462;DHT22;6803;45.264;5.468;2023-05-18T13:33:17;15.10;99.90
13462;DHT22;6803;45.264;5.468;2023-05-18T13:35:48;15.20;99.90
13462;DHT22;6803;45.264;5.468;2023-05-18T13:38:19;15.20;99.90
13462;DHT22;6803;45.264;5.468;2023-05-18T13:40:49;15.00;99.90
13462;DHT22;6803;45.264;5.468;2023-05-18T13:43:20;15.00;99.90
13462;DHT22;6803;45.264;5.468;2023-05-18T13:45:51;14.90;99.90
13462;DHT22;6803;45.264;5.468;2023-05-18T13:48:22;15.10;99.90
13462;DHT22;6803;45.264;5.468;2023-05-18T13:50:53;15.20;99.90
13462;DHT22;6803;45.264;5.468;2023-05-18T13:53:24;14.90;99.90
13462;DHT22;6803;45.264;5.468;2023-05-18T13:55:55;14.90;99.90
13462;DHT22;6803;45.264;5.468;2023-05-18T13:58:26;14.70;99.90
13462;DHT22;6803;45.264;5.468;2023-05-18T14:00:57;14.70;99.90
13462;DHT22;6803;45.264;5.468;2023-05-18T14:03:30;14.60;99.90
13462;DHT22;6803;45.264;5.468;2023-05-18T14:06:03;14.50;99.90
13462;DHT22;6803;45.264;5.468;2023-05-18T14:08:33;14.50;99.90
13462;DHT22;6803;45.264;5.468;2023-05-18T14:11:04;14.50;99.90
13462;DHT22;6803;45.264;5.468;2023-05-18T14:13:35;14.40;99.90
13462;DHT22;6803;45.264;5.468;2023-05-18T14:16:07;14.40;99.90
13462;DHT22;6803;45.264;5.468;2023-05-18T14:18:38;14.30;99.90
13462;DHT22;6803;45.264;5.468;2023-05-18T14:21:09;14.30;99.90
13462;DHT22;6803;45.264;5.468;2023-05-18T14:23:40;14.40;99.90
13462;DHT22;6803;45.264;5.468;2023-05-18T14:26:11;14.20;99.90
13462;DHT22;6803;45.264;5.468;2023-05-18T14:28:42;14.20;99.90
13462;DHT22;6803;45.264;5.468;2023-05-18T14:31:13;14.20;99.90
13462;DHT22;6803;45.264;5.468;2023-05-18T14:34:03;14.20;99.90
13462;DHT22;6803;45.264;5.468;2023-05-18T14:36:34;14.20;99.90
13462;DHT22;6803;45.264;5.468;2023-05-18T14:39:05;14.20;99.90
13462;DHT22;6803;45.264;5.468;2023-05-18T14:41:37;14.30;99.90
13462;DHT22;6803;45.264;5.468;2023-05-18T14:44:07;14.30;99.90
13462;DHT22;6803;45.264;5.468;2023-05-18T14:46:39;14.30;99.90
13462;DHT22;6803;45.264;5.468;2023-05-18T14:49:10;14.20;99.90
13462;DHT22;6803;45.264;5.468;2023-05-18T14:51:40;14.20;99.90
13462;DHT22;6803;45.264;5.468;2023-05-18T14:54:11;14.20;99.90
13462;DHT22;6803;45.264;5.468;2023-05-18T14:56:42;14.20;99.90
13462;DHT22;6803;45.264;5.468;2023-05-18T14:59:13;14.20;99.90
13462;DHT22;6803;45.264;5.468;2023-05-18T15:01:44;14.40;99.90
13462;DHT22;6803;45.264;5.468;2023-05-18T15:04:14;14.30;99.90
13462;DHT22;6803;45.264;5.468;2023-05-18T15:06:45;14.60;99.90
13462;DHT22;6803;45.264;5.468;2023-05-18T15:09:16;14.70;99.90
13462;DHT22;6803;45.264;5.468;2023-05-18T15:11:47;14.50;99.90
13462;DHT22;6803;45.264;5.468;2023-05-18T15:14:19;14.40;99.90
13462;DHT22;6803;45.264;5.468;2023-05-18T15:16:49;14.40;99.90
13462;DHT22;6803;45.264;5.468;2023-05-18T15:19:20;14.50;99.90
13462;DHT22;6803;45.264;5.468;2023-05-18T15:21:51;14.70;99.90
13462;DHT22;6803;45.264;5.468;2023-05-18T15:24:22;14.70;99.90
13462;DHT22;6803;45.264;5.468;2023-05-18T15:26:53;14.70;99.90
13462;DHT22;6803;45.264;5.468;2023-05-18T15:29:24;14.70;99.90
13462;DHT22;6803;45.264;5.468;2023-05-18T15:31:55;14.70;99.90
13462;DHT22;6803;45.264;5.468;2023-05-18T15:34:26;14.60;99.90
13462;DHT22;6803;45.264;5.468;2023-05-18T15:36:58;14.60;99.90
13462;DHT22;6803;45.264;5.468;2023-05-18T15:39:30;14.40;99.90
13462;DHT22;6803;45.264;5.468;2023-05-18T15:42:00;14.60;99.90
13462;DHT22;6803;45.264;5.468;2023-05-18T15:44:33;14.70;99.90
13462;DHT22;6803;45.264;5.468;2023-05-18T15:47:04;14.70;99.90
13462;DHT22;6803;45.264;5.468;2023-05-18T15:49:35;14.70;99.90
13462;DHT22;6803;45.264;5.468;2023-05-18T15:52:07;14.60;99.90
13462;DHT22;6803;45.264;5.468;2023-05-18T15:54:38;14.90;99.90
13462;DHT22;6803;45.264;5.468;2023-05-18T15:57:08;14.80;99.90
13462;DHT22;6803;45.264;5.468;2023-05-18T15:59:39;14.80;99.90
13462;DHT22;6803;45.264;5.468;2023-05-18T16:02:10;14.70;99.90
13462;DHT22;6803;45.264;5.468;2023-05-18T16:04:41;14.70;99.90
13462;DHT22;6803;45.264;5.468;2023-05-18T16:07:11;14.70;99.90
13462;DHT22;6803;45.264;5.468;2023-05-18T16:09:43;14.60;99.90
13462;DHT22;6803;45.264;5.468;2023-05-18T16:12:15;14.60;99.90
13462;DHT22;6803;45.264;5.468;2023-05-18T16:14:46;14.60;99.90
13462;DHT22;6803;45.264;5.468;2023-05-18T16:17:17;14.50;99.90
13462;DHT22;6803;45.264;5.468;2023-05-18T16:19:48;14.60;99.90
13462;DHT22;6803;45.264;5.468;2023-05-18T16:22:19;14.60;99.90
13462;DHT22;6803;45.264;5.468;2023-05-18T16:24:50;14.60;99.90
13462;DHT22;6803;45.264;5.468;2023-05-18T16:27:21;14.60;99.90
13462;DHT22;6803;45.264;5.468;2023-05-18T16:29:52;14.70;99.90
13462;DHT22;6803;45.264;5.468;2023-05-18T16:32:23;14.70;99.90
13462;DHT22;6803;45.264;5.468;2023-05-18T16:34:55;14.90;99.90
13462;DHT22;6803;45.264;5.468;2023-05-18T16:37:26;14.70;99.90
13462;DHT22;6803;45.264;5.468;2023-05-18T16:39:57;14.70;99.90